createdAt,value
2019-01-27T00:00:53.443Z,95314.48
2019-01-27T00:06:15.552Z,95305.34
2019-01-27T00:08:44.207Z,95310.69
2019-01-27T00:11:12.900Z,95299.24
2019-01-27T00:13:41.592Z,95291.62
2019-01-27T00:19:18.591Z,95278.42
2019-01-27T00:21:47.240Z,95263.70
2019-01-27T00:27:09.486Z,95246.89
2019-01-27T00:29:38.148Z,95243.36
2019-01-27T00:32:06.853Z,95237.25
2019-01-27T00:34:54.803Z,95231.91
2019-01-27T00:37:23.463Z,95218.66
2019-01-27T00:45:40.425Z,95204.91
2019-01-27T00:48:48.914Z,95201.91
2019-01-27T00:51:57.341Z,95197.58
2019-01-27T00:54:45.289Z,95190.23
2019-01-27T00:57:33.239Z,95178.80
2019-01-27T01:00:21.185Z,95181.34
2019-01-27T01:06:17.195Z,95165.55
2019-01-27T01:08:45.839Z,95154.11
2019-01-27T01:11:54.319Z,95154.86
2019-01-27T01:14:22.977Z,95146.22
2019-01-27T01:17:10.819Z,95150.55
2019-01-27T01:23:27.428Z,95142.19
2019-01-27T01:25:56.127Z,95131.50
2019-01-27T01:28:43.910Z,95126.89
2019-01-27T01:31:31.854Z,95121.05
2019-01-27T01:34:00.549Z,95122.02
2019-01-27T01:36:48.359Z,95117.22
2019-01-27T01:39:36.296Z,95105.77
2019-01-27T01:44:59.918Z,95097.84
2019-01-27T01:47:47.704Z,95085.42
2019-01-27T01:53:30.321Z,95074.25
2019-01-27T01:56:18.160Z,95072.22
2019-01-27T01:59:06.106Z,95060.33
2019-01-27T02:01:54.012Z,95048.39
2019-01-27T02:04:41.965Z,95049.66
2019-01-27T02:10:58.560Z,95038.27
2019-01-27T02:13:46.487Z,95032.92
2019-01-27T02:16:15.262Z,95023.27
2019-01-27T02:19:03.092Z,95019.45
2019-01-27T02:22:11.534Z,95014.89
2019-01-27T02:24:59.347Z,95002.69
2019-01-27T02:27:28.012Z,95001.41
2019-01-27T02:30:15.971Z,94996.61
2019-01-27T02:38:12.556Z,94979.59
2019-01-27T02:41:00.467Z,94963.84
2019-01-27T02:43:29.166Z,94957.77
2019-01-27T02:48:45.627Z,94958.27
2019-01-27T02:51:34.072Z,94953.19
2019-01-27T02:54:03.598Z,94940.98
2019-01-27T02:56:51.571Z,94942.79
2019-01-27T02:59:20.218Z,94937.44
2019-01-27T03:09:55.839Z,94926.03
2019-01-27T03:12:43.807Z,94906.73
2019-01-27T03:15:52.286Z,94900.86
2019-01-27T03:18:20.944Z,94904.95
2019-01-27T03:21:08.891Z,94899.86
2019-01-27T03:27:04.852Z,94901.63
2019-01-27T03:29:52.733Z,94896.32
2019-01-27T03:32:40.645Z,94886.16
2019-01-27T03:35:49.108Z,94872.19
2019-01-27T03:38:17.763Z,94871.42
2019-01-27T03:40:46.451Z,94865.86
2019-01-27T03:43:15.114Z,94860.28
2019-01-27T03:45:43.762Z,94854.20
2019-01-27T03:55:55.055Z,94834.13
2019-01-27T03:58:42.930Z,94827.52
2019-01-27T04:04:18.528Z,94826.50
2019-01-27T04:07:06.357Z,94829.52
2019-01-27T04:09:35.053Z,94827.48
2019-01-27T04:14:51.393Z,94822.12
2019-01-27T04:17:39.298Z,94817.79
2019-01-27T04:20:47.760Z,94815.75
2019-01-27T04:23:35.694Z,94809.86
2019-01-27T04:26:23.634Z,94806.30
2019-01-27T04:29:11.515Z,94808.55
2019-01-27T04:31:40.206Z,94799.89
2019-01-27T04:34:08.858Z,94796.83
2019-01-27T04:36:56.801Z,94786.91
2019-01-27T04:39:44.634Z,94781.37
2019-01-27T04:42:32.439Z,94787.20
2019-01-27T04:45:20.225Z,94783.91
2019-01-27T04:50:23.036Z,94772.98
2019-01-27T04:52:51.696Z,94768.13
2019-01-27T04:56:00.166Z,94753.67
2019-01-27T04:58:28.868Z,94747.32
2019-01-27T05:01:16.655Z,94734.41
2019-01-27T05:04:04.558Z,94729.58
2019-01-27T05:06:33.290Z,94717.84
2019-01-27T05:09:21.244Z,94711.26
2019-01-27T05:11:49.918Z,94704.97
2019-01-27T05:14:37.762Z,94695.03
2019-01-27T05:17:25.654Z,94694.50
2019-01-27T05:19:54.343Z,94690.49
2019-01-27T05:22:42.249Z,94687.23
2019-01-27T05:25:50.722Z,94681.35
2019-01-27T05:28:59.181Z,94674.00
2019-01-27T05:31:46.997Z,94666.61
2019-01-27T05:34:35.071Z,94665.82
2019-01-27T05:37:04.071Z,94670.89
2019-01-27T05:39:52.484Z,94667.52
2019-01-27T05:42:42.162Z,94674.64
2019-01-27T05:45:50.836Z,94667.27
2019-01-27T05:48:19.986Z,94664.00
2019-01-27T05:51:07.862Z,94665.14
2019-01-27T05:53:36.534Z,94664.13
2019-01-27T05:56:24.512Z,94658.55
2019-01-27T05:58:53.193Z,94667.92
2019-01-27T06:01:41.145Z,94660.72
2019-01-27T06:09:18.505Z,94659.50
2019-01-27T06:12:06.341Z,94660.79
2019-01-27T06:14:35.033Z,94648.08
2019-01-27T06:17:03.696Z,94651.47
2019-01-27T06:19:51.579Z,94639.98
2019-01-27T06:22:39.498Z,94632.11
2019-01-27T06:25:48.033Z,94637.52
2019-01-27T06:28:30.083Z,94632.75
2019-01-27T06:30:58.778Z,94638.38
2019-01-27T06:33:46.740Z,94632.30
2019-01-27T06:36:15.448Z,94628.25
2019-01-27T06:41:52.537Z,94623.91
2019-01-27T06:44:40.450Z,94623.85
2019-01-27T06:47:09.135Z,94616.52
2019-01-27T06:49:37.830Z,94607.63
2019-01-27T06:52:25.811Z,94600.00
2019-01-27T06:54:54.467Z,94605.83
2019-01-27T06:57:23.152Z,94613.67
2019-01-27T07:07:57.391Z,94589.52
2019-01-27T07:10:45.210Z,94590.27
2019-01-27T07:13:33.061Z,94587.18
2019-01-27T07:16:20.837Z,94579.36
2019-01-27T07:19:08.707Z,94581.11
2019-01-27T07:21:56.481Z,94583.41
2019-01-27T07:24:44.286Z,94584.88
2019-01-27T07:38:57.780Z,94568.89
2019-01-27T07:41:45.567Z,94559.11
2019-01-27T07:44:52.576Z,94555.60
2019-01-27T07:47:59.586Z,94546.96
2019-01-27T07:51:06.590Z,94552.81
2019-01-27T07:54:13.696Z,94559.27
2019-01-27T07:57:20.708Z,94543.85
2019-01-27T08:00:29.209Z,94547.65
2019-01-27T08:03:17.038Z,94533.55
2019-01-27T08:11:33.689Z,94533.45
2019-01-27T08:14:21.489Z,94534.63
2019-01-27T08:20:04.099Z,94538.55
2019-01-27T08:22:51.924Z,94531.84
2019-01-27T08:25:58.951Z,94531.82
2019-01-27T08:31:55.161Z,94523.34
2019-01-27T08:37:51.536Z,94520.33
2019-01-27T08:43:55.871Z,94519.36
2019-01-27T08:46:43.722Z,94518.09
2019-01-27T08:49:12.517Z,94510.42
2019-01-27T08:52:00.365Z,94501.48
2019-01-27T08:54:29.055Z,94498.55
2019-01-27T08:57:17.301Z,94488.69
2019-01-27T09:00:05.252Z,94484.06
2019-01-27T09:03:12.251Z,94497.36
2019-01-27T09:06:00.047Z,94498.27
2019-01-27T09:15:17.769Z,94483.14
2019-01-27T09:18:05.538Z,94478.95
2019-01-27T09:23:48.174Z,94474.99
2019-01-27T09:26:55.134Z,94459.86
2019-01-27T09:30:02.136Z,94448.46
2019-01-27T09:32:49.942Z,94439.50
2019-01-27T09:35:56.883Z,94438.47
2019-01-27T09:39:03.885Z,94444.98
2019-01-27T09:45:19.231Z,94449.63
2019-01-27T09:51:34.611Z,94455.28
2019-01-27T09:57:36.052Z,94454.42
2019-01-27T10:00:44.467Z,94464.16
2019-01-27T10:06:27.004Z,94472.58
2019-01-27T10:09:33.973Z,94461.79
2019-01-27T10:18:18.844Z,94449.00
2019-01-27T10:27:10.292Z,94422.39
2019-01-27T10:33:06.492Z,94427.11
2019-01-27T10:36:13.515Z,94411.95
2019-01-27T10:39:01.293Z,94416.44
2019-01-27T10:41:49.098Z,94405.18
2019-01-27T10:44:56.109Z,94400.53
2019-01-27T10:48:03.077Z,94403.62
2019-01-27T10:51:10.079Z,94394.23
2019-01-27T10:57:06.292Z,94373.81
2019-01-27T11:05:57.706Z,94359.95
2019-01-27T11:18:03.041Z,94353.23
2019-01-27T11:20:50.808Z,94352.66
2019-01-27T11:23:38.620Z,94348.83
2019-01-27T11:26:26.451Z,94329.05
2019-01-27T11:29:33.388Z,94323.41
2019-01-27T11:32:40.382Z,94318.06
2019-01-27T11:35:48.827Z,94319.14
2019-01-27T11:38:36.634Z,94323.58
2019-01-27T11:41:24.430Z,94316.39
2019-01-27T11:50:24.516Z,94297.36
2019-01-27T11:53:12.458Z,94299.58
2019-01-27T11:55:41.108Z,94289.44
2019-01-27T11:58:28.984Z,94278.75
2019-01-27T12:01:16.803Z,94284.95
2019-01-27T12:04:04.768Z,94274.71
2019-01-27T12:06:52.625Z,94273.86
2019-01-27T12:09:40.389Z,94276.03
2019-01-27T12:12:28.208Z,94267.23
2019-01-27T12:15:16.130Z,94260.03
2019-01-27T12:20:53.214Z,94255.69
2019-01-27T12:23:41.137Z,94250.18
2019-01-27T12:28:44.417Z,94235.75
2019-01-27T12:31:32.291Z,94242.58
2019-01-27T12:34:20.138Z,94237.84
2019-01-27T12:37:08.014Z,94248.59
2019-01-27T12:39:55.845Z,94250.50
2019-01-27T12:42:43.756Z,94243.47
2019-01-27T12:45:52.172Z,94229.31
2019-01-27T12:48:40.047Z,94234.36
2019-01-27T12:51:27.873Z,94227.75
2019-01-27T12:54:15.756Z,94222.92
2019-01-27T12:57:03.706Z,94220.08
2019-01-27T12:59:51.568Z,94210.91
2019-01-27T13:02:39.396Z,94206.77
2019-01-27T13:08:03.182Z,94213.23
2019-01-27T13:13:40.006Z,94213.34
2019-01-27T13:16:08.649Z,94207.77
2019-01-27T13:18:56.466Z,94212.40
2019-01-27T13:21:44.280Z,94204.88
2019-01-27T13:24:32.089Z,94207.66
2019-01-27T13:27:19.922Z,94208.21
2019-01-27T13:30:07.797Z,94208.81
2019-01-27T13:38:57.212Z,94217.34
2019-01-27T13:41:45.026Z,94205.96
2019-01-27T13:44:32.962Z,94203.52
2019-01-27T13:47:20.828Z,94197.31
2019-01-27T13:50:10.114Z,94196.88
2019-01-27T13:52:38.977Z,94189.95
2019-01-27T13:55:28.305Z,94185.61
2019-01-27T14:00:44.608Z,94188.05
2019-01-27T14:03:32.374Z,94187.31
2019-01-27T14:06:20.250Z,94187.83
2019-01-27T14:09:08.070Z,94178.66
2019-01-27T14:14:30.108Z,94175.50
2019-01-27T14:17:17.912Z,94179.20
2019-01-27T14:20:05.744Z,94169.42
2019-01-27T14:22:34.446Z,94179.67
2019-01-27T14:25:22.278Z,94169.43
2019-01-27T14:28:10.149Z,94167.03
2019-01-27T14:30:59.482Z,94165.97
2019-01-27T14:33:47.362Z,94168.31
2019-01-27T14:36:35.183Z,94164.16
2019-01-27T14:39:23.041Z,94156.34
2019-01-27T14:42:10.814Z,94182.70
2019-01-27T14:44:58.678Z,94173.14
2019-01-27T14:47:46.557Z,94176.83
2019-01-27T14:50:54.996Z,94176.48
2019-01-27T14:53:42.874Z,94174.84
2019-01-27T14:56:30.929Z,94166.79
2019-01-27T14:59:18.804Z,94171.31
2019-01-27T15:02:06.641Z,94166.34
2019-01-27T15:04:54.517Z,94166.88
2019-01-27T15:07:42.397Z,94170.63
2019-01-27T15:10:30.312Z,94180.77
2019-01-27T15:13:18.107Z,94171.53
2019-01-27T15:15:46.742Z,94174.98
2019-01-27T15:18:34.706Z,94153.25
2019-01-27T15:21:22.507Z,94160.38
2019-01-27T15:24:10.280Z,94147.83
2019-01-27T15:26:58.157Z,94147.05
2019-01-27T15:29:45.981Z,94146.09
2019-01-27T15:32:33.918Z,94158.05
2019-01-27T15:35:21.747Z,94152.94
2019-01-27T15:37:50.439Z,94142.27
2019-01-27T15:40:58.851Z,94146.61
2019-01-27T15:43:48.622Z,94145.55
2019-01-27T15:46:36.262Z,94144.21
2019-01-27T15:49:24.136Z,94143.16
2019-01-27T15:52:12.087Z,94143.95
2019-01-27T15:54:59.943Z,94140.34
2019-01-27T15:57:47.889Z,94142.16
2019-01-27T16:00:56.346Z,94148.99
2019-01-27T16:03:44.176Z,94147.87
2019-01-27T16:06:32.071Z,94144.38
2019-01-27T16:09:19.949Z,94131.45
2019-01-27T16:11:48.595Z,94126.17
2019-01-27T16:14:36.473Z,94133.31
2019-01-27T16:17:44.939Z,94132.70
2019-01-27T16:20:53.369Z,94131.03
2019-01-27T16:23:41.183Z,94123.59
2019-01-27T16:26:28.997Z,94121.82
2019-01-27T16:34:41.614Z,94123.47
2019-01-27T16:37:10.266Z,94125.47
2019-01-27T16:39:38.909Z,94125.74
2019-01-27T16:42:26.851Z,94123.98
2019-01-27T16:44:55.499Z,94120.48
2019-01-27T16:47:43.368Z,94121.86
2019-01-27T16:50:51.856Z,94115.64
2019-01-27T16:53:39.828Z,94118.92
2019-01-27T16:56:27.590Z,94109.87
2019-01-27T16:59:15.474Z,94110.70
2019-01-27T17:02:03.280Z,94114.82
2019-01-27T17:04:31.950Z,94105.59
2019-01-27T17:07:00.596Z,94107.48
2019-01-27T17:09:48.470Z,94107.66
2019-01-27T17:12:36.670Z,94110.14
2019-01-27T17:15:45.131Z,94110.95
2019-01-27T17:18:33.076Z,94115.48
2019-01-27T17:21:20.896Z,94114.09
2019-01-27T17:24:16.061Z,94106.70
2019-01-27T17:26:44.687Z,94115.69
2019-01-27T17:29:13.378Z,94118.28
2019-01-27T17:32:01.212Z,94108.31
2019-01-27T17:34:49.071Z,94107.26
2019-01-27T17:37:36.955Z,94103.44
2019-01-27T17:40:45.431Z,94115.05
2019-01-27T17:43:14.448Z,94105.44
2019-01-27T17:45:43.075Z,94108.47
2019-01-27T17:48:30.890Z,94111.92
2019-01-27T17:51:18.726Z,94110.65
2019-01-27T18:02:32.172Z,94112.29
2019-01-27T18:05:39.093Z,94109.56
2019-01-27T18:16:13.365Z,94118.87
2019-01-27T18:18:42.010Z,94124.70
2019-01-27T18:21:10.697Z,94123.89
2019-01-27T18:23:58.467Z,94135.16
2019-01-27T18:26:27.155Z,94121.55
2019-01-27T18:29:15.027Z,94124.85
2019-01-27T18:31:43.655Z,94131.83
2019-01-27T18:34:12.330Z,94134.95
2019-01-27T18:36:41.207Z,94135.66
2019-01-27T18:39:30.545Z,94131.84
2019-01-27T18:41:59.188Z,94138.79
2019-01-27T18:44:27.917Z,94141.77
2019-01-27T18:47:15.726Z,94143.92
2019-01-27T18:52:38.856Z,94155.11
2019-01-27T18:55:47.277Z,94155.45
2019-01-27T18:58:35.088Z,94152.09
2019-01-27T19:01:24.339Z,94161.05
2019-01-27T19:09:45.844Z,94161.89
2019-01-27T19:12:33.617Z,94166.89
2019-01-27T19:15:40.627Z,94163.08
2019-01-27T19:18:28.446Z,94172.38
2019-01-27T19:27:20.547Z,94183.63
2019-01-27T19:32:49.089Z,94185.61
2019-01-27T19:38:45.298Z,94197.48
2019-01-27T19:44:41.537Z,94195.75
2019-01-27T19:47:48.484Z,94197.06
2019-01-27T19:50:55.471Z,94197.56
2019-01-27T19:53:43.299Z,94202.15
2019-01-27T19:56:50.291Z,94212.09
2019-01-27T19:59:57.283Z,94216.37
2019-01-27T20:02:45.092Z,94220.53
2019-01-27T20:16:51.209Z,94218.67
2019-01-27T20:19:39.013Z,94224.89
2019-01-27T20:22:26.827Z,94229.84
2019-01-27T20:28:23.022Z,94224.95
2019-01-27T20:31:30.024Z,94229.81
2019-01-27T20:34:36.984Z,94236.21
2019-01-27T20:37:24.786Z,94235.94
2019-01-27T20:40:31.748Z,94232.16
2019-01-27T20:43:38.785Z,94248.73
2019-01-27T20:46:26.562Z,94250.54
2019-01-27T20:49:33.578Z,94255.19
2019-01-27T20:54:56.809Z,94268.54
2019-01-27T20:57:44.588Z,94269.37
2019-01-27T21:00:53.047Z,94287.21
2019-01-27T21:03:40.852Z,94286.03
2019-01-27T21:06:47.823Z,94299.87
2019-01-27T21:09:35.635Z,94313.38
2019-01-27T21:22:30.250Z,94347.75
2019-01-27T21:24:59.074Z,94360.95
2019-01-27T21:27:46.944Z,94364.02
2019-01-27T21:30:55.373Z,94358.45
2019-01-27T21:33:43.248Z,94368.92
2019-01-27T21:36:31.086Z,94374.34
2019-01-27T21:38:59.773Z,94389.94
2019-01-27T21:41:47.701Z,94380.15
2019-01-27T21:44:35.649Z,94388.09
2019-01-27T21:47:44.118Z,94397.72
2019-01-27T21:50:52.776Z,94400.79
2019-01-27T21:53:21.425Z,94403.40
2019-01-27T21:56:09.288Z,94419.20
2019-01-27T21:58:57.156Z,94425.37
2019-01-27T22:01:44.977Z,94423.87
2019-01-27T22:04:32.781Z,94438.92
2019-01-27T22:07:01.410Z,94442.79
2019-01-27T22:09:49.232Z,94457.57
2019-01-27T22:12:17.919Z,94460.48
2019-01-27T22:15:05.765Z,94467.07
2019-01-27T22:20:27.969Z,94478.08
2019-01-27T22:22:56.636Z,94476.34
2019-01-27T22:25:44.495Z,94483.42
2019-01-27T22:28:32.375Z,94487.50
2019-01-27T22:31:20.188Z,94493.33
2019-01-27T22:34:08.138Z,94512.33
2019-01-27T22:36:55.914Z,94514.11
2019-01-27T22:39:44.680Z,94528.06
2019-01-27T22:42:14.117Z,94543.25
2019-01-27T22:45:01.931Z,94535.91
2019-01-27T22:47:30.623Z,94553.63
2019-01-27T22:49:59.277Z,94557.16
2019-01-27T22:52:47.155Z,94552.86
2019-01-27T22:55:16.094Z,94566.53
2019-01-27T22:57:44.747Z,94577.92
2019-01-27T23:00:53.230Z,94585.25
2019-01-27T23:03:41.100Z,94586.77
2019-01-27T23:06:28.939Z,94593.09
2019-01-27T23:11:52.535Z,94610.31
2019-01-27T23:14:21.223Z,94620.42
2019-01-27T23:17:09.193Z,94624.98
2019-01-27T23:19:37.865Z,94636.60
2019-01-27T23:22:06.502Z,94637.38
2019-01-27T23:24:54.391Z,94644.98
2019-01-27T23:27:23.142Z,94646.72
2019-01-27T23:29:51.784Z,94651.28
2019-01-27T23:32:20.455Z,94655.36
2019-01-27T23:34:49.135Z,94661.95
2019-01-27T23:37:36.900Z,94665.50
2019-01-27T23:40:45.382Z,94674.35
2019-01-27T23:43:14.030Z,94675.36
2019-01-27T23:45:42.725Z,94685.45
2019-01-27T23:48:30.709Z,94672.80
2019-01-27T23:51:18.728Z,94681.66
2019-01-27T23:53:47.440Z,94690.01
2019-01-27T23:56:16.081Z,94689.53
2019-01-27T23:58:44.734Z,94690.53
